sensor_id;sensor_type;location;lat;lon;timestamp;temperature;humidity
2757;DHT22;1386;50.862;6.494;2022-11-02T00:00:46;14.10;99.90
2757;DHT22;1386;50.862;6.494;2022-11-02T00:03:13;14.10;99.90
2757;DHT22;1386;50.862;6.494;2022-11-02T00:05:40;14.10;99.90
2757;DHT22;1386;50.862;6.494;2022-11-02T00:08:07;14.00;99.90
2757;DHT22;1386;50.862;6.494;2022-11-02T00:10:34;14.00;99.90
2757;DHT22;1386;50.862;6.494;2022-11-02T00:13:01;14.00;99.90
2757;DHT22;1386;50.862;6.494;2022-11-02T00:15:32;14.00;99.90
2757;DHT22;1386;50.862;6.494;2022-11-02T00:18:03;14.00;99.90
2757;DHT22;1386;50.862;6.494;2022-11-02T00:20:31;14.00;99.90
2757;DHT22;1386;50.862;6.494;2022-11-02T00:22:59;14.00;99.90
2757;DHT22;1386;50.862;6.494;2022-11-02T00:25:27;14.00;99.90
2757;DHT22;1386;50.862;6.494;2022-11-02T00:27:55;14.00;99.90
2757;DHT22;1386;50.862;6.494;2022-11-02T00:30:21;14.00;99.90
2757;DHT22;1386;50.862;6.494;2022-11-02T00:32:50;14.00;99.90
2757;DHT22;1386;50.862;6.494;2022-11-02T00:35:17;14.00;99.90
2757;DHT22;1386;50.862;6.494;2022-11-02T00:37:44;13.90;99.90
2757;DHT22;1386;50.862;6.494;2022-11-02T00:40:11;13.90;99.90
2757;DHT22;1386;50.862;6.494;2022-11-02T00:42:38;13.90;99.90
2757;DHT22;1386;50.862;6.494;2022-11-02T00:45:06;13.80;99.90
2757;DHT22;1386;50.862;6.494;2022-11-02T00:47:33;13.80;99.90
2757;DHT22;1386;50.862;6.494;2022-11-02T00:50:06;13.80;99.90
2757;DHT22;1386;50.862;6.494;2022-11-02T00:52:33;13.80;99.90
2757;DHT22;1386;50.862;6.494;2022-11-02T00:54:59;13.80;99.90
2757;DHT22;1386;50.862;6.494;2022-11-02T00:57:26;13.80;99.90
2757;DHT22;1386;50.862;6.494;2022-11-02T00:59:53;13.70;99.90
2757;DHT22;1386;50.862;6.494;2022-11-02T01:02:20;13.70;99.90
2757;DHT22;1386;50.862;6.494;2022-11-02T01:04:47;13.70;99.90
2757;DHT22;1386;50.862;6.494;2022-11-02T01:07:15;13.70;99.90
2757;DHT22;1386;50.862;6.494;2022-11-02T01:09:42;13.70;99.90
2757;DHT22;1386;50.862;6.494;2022-11-02T01:12:08;13.70;99.90
2757;DHT22;1386;50.862;6.494;2022-11-02T01:14:35;13.80;99.90
2757;DHT22;1386;50.862;6.494;2022-11-02T01:17:03;13.70;99.90
2757;DHT22;1386;50.862;6.494;2022-11-02T01:19:30;13.70;99.90
2757;DHT22;1386;50.862;6.494;2022-11-02T01:21:57;13.70;99.90
2757;DHT22;1386;50.862;6.494;2022-11-02T01:24:25;13.70;99.90
2757;DHT22;1386;50.862;6.494;2022-11-02T01:26:52;13.60;99.90
2757;DHT22;1386;50.862;6.494;2022-11-02T01:29:19;13.60;99.90
2757;DHT22;1386;50.862;6.494;2022-11-02T01:31:45;13.60;99.90
2757;DHT22;1386;50.862;6.494;2022-11-02T01:34:13;13.60;99.90
2757;DHT22;1386;50.862;6.494;2022-11-02T01:36:40;13.60;99.90
2757;DHT22;1386;50.862;6.494;2022-11-02T01:39:09;13.60;99.90
2757;DHT22;1386;50.862;6.494;2022-11-02T01:41:37;13.60;99.90
2757;DHT22;1386;50.862;6.494;2022-11-02T01:44:19;13.60;99.90
2757;DHT22;1386;50.862;6.494;2022-11-02T01:46:52;13.50;99.90
2757;DHT22;1386;50.862;6.494;2022-11-02T01:49:21;13.60;99.90
2757;DHT22;1386;50.862;6.494;2022-11-02T01:51:54;13.60;99.90
2757;DHT22;1386;50.862;6.494;2022-11-02T01:54:25;13.60;99.90
2757;DHT22;1386;50.862;6.494;2022-11-02T01:56:57;13.60;99.90
2757;DHT22;1386;50.862;6.494;2022-11-02T01:59:28;13.60;99.90
2757;DHT22;1386;50.862;6.494;2022-11-02T02:01:56;13.60;99.90
2757;DHT22;1386;50.862;6.494;2022-11-02T02:04:24;13.60;99.90
2757;DHT22;1386;50.862;6.494;2022-11-02T02:06:52;13.60;99.90
2757;DHT22;1386;50.862;6.494;2022-11-02T02:09:22;13.60;99.90
2757;DHT22;1386;50.862;6.494;2022-11-02T02:11:49;13.60;99.90
2757;DHT22;1386;50.862;6.494;2022-11-02T02:14:18;13.50;99.90
2757;DHT22;1386;50.862;6.494;2022-11-02T02:19:51;13.50;99.90
2757;DHT22;1386;50.862;6.494;2022-11-02T02:25:31;13.60;99.90
2757;DHT22;1386;50.862;6.494;2022-11-02T02:28:14;13.60;99.90
2757;DHT22;1386;50.862;6.494;2022-11-02T02:30:50;13.50;99.90
2757;DHT22;1386;50.862;6.494;2022-11-02T02:33:25;13.50;99.90
2757;DHT22;1386;50.862;6.494;2022-11-02T02:36:00;13.50;99.90
2757;DHT22;1386;50.862;6.494;2022-11-02T02:38:32;13.50;99.90
2757;DHT22;1386;50.862;6.494;2022-11-02T02:41:07;13.40;99.90
2757;DHT22;1386;50.862;6.494;2022-11-02T02:43:41;13.50;99.90
2757;DHT22;1386;50.862;6.494;2022-11-02T02:46:14;13.50;99.90
2757;DHT22;1386;50.862;6.494;2022-11-02T02:48:45;13.40;99.90
2757;DHT22;1386;50.862;6.494;2022-11-02T02:51:16;13.40;99.90
2757;DHT22;1386;50.862;6.494;2022-11-02T02:53:47;13.40;99.90
2757;DHT22;1386;50.862;6.494;2022-11-02T02:56:18;13.40;99.90
2757;DHT22;1386;50.862;6.494;2022-11-02T02:58:51;13.40;99.90
2757;DHT22;1386;50.862;6.494;2022-11-02T03:01:21;13.40;99.90
2757;DHT22;1386;50.862;6.494;2022-11-02T03:03:48;13.40;99.90
2757;DHT22;1386;50.862;6.494;2022-11-02T03:06:19;13.40;99.90
2757;DHT22;1386;50.862;6.494;2022-11-02T03:08:58;13.50;99.90
2757;DHT22;1386;50.862;6.494;2022-11-02T03:11:28;13.50;99.90
2757;DHT22;1386;50.862;6.494;2022-11-02T03:14:15;13.50;99.90
2757;DHT22;1386;50.862;6.494;2022-11-02T03:16:59;13.40;99.90
2757;DHT22;1386;50.862;6.494;2022-11-02T03:19:34;13.40;99.90
2757;DHT22;1386;50.862;6.494;2022-11-02T03:22:07;13.40;99.90
2757;DHT22;1386;50.862;6.494;2022-11-02T03:24:42;13.50;99.90
2757;DHT22;1386;50.862;6.494;2022-11-02T03:27:34;13.50;99.90
2757;DHT22;1386;50.862;6.494;2022-11-02T03:30:13;13.60;99.90
2757;DHT22;1386;50.862;6.494;2022-11-02T03:32:47;13.60;99.90
2757;DHT22;1386;50.862;6.494;2022-11-02T03:35:19;13.60;99.90
2757;DHT22;1386;50.862;6.494;2022-11-02T03:37:50;13.60;99.90
2757;DHT22;1386;50.862;6.494;2022-11-02T03:40:20;13.60;99.90
2757;DHT22;1386;50.862;6.494;2022-11-02T03:42:51;13.60;99.90
2757;DHT22;1386;50.862;6.494;2022-11-02T03:45:22;13.60;99.90
2757;DHT22;1386;50.862;6.494;2022-11-02T03:47:53;13.50;99.90
2757;DHT22;1386;50.862;6.494;2022-11-02T03:50:22;13.50;99.90
2757;DHT22;1386;50.862;6.494;2022-11-02T03:52:54;13.50;99.90
2757;DHT22;1386;50.862;6.494;2022-11-02T03:55:25;13.40;99.90
2757;DHT22;1386;50.862;6.494;2022-11-02T03:57:54;13.40;99.90
2757;DHT22;1386;50.862;6.494;2022-11-02T04:03:51;13.30;99.90
2757;DHT22;1386;50.862;6.494;2022-11-02T04:09:08;13.30;99.90
2757;DHT22;1386;50.862;6.494;2022-11-02T04:11:38;13.20;99.90
2757;DHT22;1386;50.862;6.494;2022-11-02T04:14:23;13.20;99.90
2757;DHT22;1386;50.862;6.494;2022-11-02T04:17:07;13.10;99.90
2757;DHT22;1386;50.862;6.494;2022-11-02T04:19:53;13.10;99.90
2757;DHT22;1386;50.862;6.494;2022-11-02T04:22:20;13.10;99.90
2757;DHT22;1386;50.862;6.494;2022-11-02T04:25:06;13.00;99.90
2757;DHT22;1386;50.862;6.494;2022-11-02T04:27:44;13.00;99.90
2757;DHT22;1386;50.862;6.494;2022-11-02T04:30:13;13.00;99.90
2757;DHT22;1386;50.862;6.494;2022-11-02T04:32:41;13.00;99.90
2757;DHT22;1386;50.862;6.494;2022-11-02T04:35:27;12.90;99.90
2757;DHT22;1386;50.862;6.494;2022-11-02T04:37:54;12.90;99.90
2757;DHT22;1386;50.862;6.494;2022-11-02T04:40:39;12.90;99.90
2757;DHT22;1386;50.862;6.494;2022-11-02T04:43:06;12.90;99.90
2757;DHT22;1386;50.862;6.494;2022-11-02T04:45:33;12.80;99.90
2757;DHT22;1386;50.862;6.494;2022-11-02T04:48:00;12.80;99.90
2757;DHT22;1386;50.862;6.494;2022-11-02T04:50:28;12.80;99.90
2757;DHT22;1386;50.862;6.494;2022-11-02T04:52:56;12.80;99.90
2757;DHT22;1386;50.862;6.494;2022-11-02T04:55:23;12.80;99.90
2757;DHT22;1386;50.862;6.494;2022-11-02T04:57:50;12.80;99.90
2757;DHT22;1386;50.862;6.494;2022-11-02T05:00:18;12.80;99.90
2757;DHT22;1386;50.862;6.494;2022-11-02T05:02:45;12.70;99.90
2757;DHT22;1386;50.862;6.494;2022-11-02T05:05:13;12.70;99.90
2757;DHT22;1386;50.862;6.494;2022-11-02T05:07:41;12.70;99.90
2757;DHT22;1386;50.862;6.494;2022-11-02T05:10:08;12.70;99.90
2757;DHT22;1386;50.862;6.494;2022-11-02T05:12:36;12.70;99.90
2757;DHT22;1386;50.862;6.494;2022-11-02T05:15:03;12.70;99.90
2757;DHT22;1386;50.862;6.494;2022-11-02T05:17:30;12.60;99.90
2757;DHT22;1386;50.862;6.494;2022-11-02T05:19:57;12.60;99.90
2757;DHT22;1386;50.862;6.494;2022-11-02T05:22:23;12.60;99.90
2757;DHT22;1386;50.862;6.494;2022-11-02T05:24:52;12.70;99.90
2757;DHT22;1386;50.862;6.494;2022-11-02T05:27:18;12.60;99.90
2757;DHT22;1386;50.862;6.494;2022-11-02T05:29:45;12.60;99.90
2757;DHT22;1386;50.862;6.494;2022-11-02T05:32:12;12.60;99.90
2757;DHT22;1386;50.862;6.494;2022-11-02T05:34:39;12.50;99.90
2757;DHT22;1386;50.862;6.494;2022-11-02T05:37:06;12.50;99.90
2757;DHT22;1386;50.862;6.494;2022-11-02T05:39:32;12.50;99.90
2757;DHT22;1386;50.862;6.494;2022-11-02T05:42:41;12.50;99.90
2757;DHT22;1386;50.862;6.494;2022-11-02T05:45:08;12.50;99.90
2757;DHT22;1386;50.862;6.494;2022-11-02T05:47:35;12.50;99.90
2757;DHT22;1386;50.862;6.494;2022-11-02T05:50:03;12.50;99.90
2757;DHT22;1386;50.862;6.494;2022-11-02T05:52:30;12.50;99.90
2757;DHT22;1386;50.862;6.494;2022-11-02T05:54:57;12.40;99.90
2757;DHT22;1386;50.862;6.494;2022-11-02T05:57:23;12.40;99.90
2757;DHT22;1386;50.862;6.494;2022-11-02T05:59:52;12.40;99.90
2757;DHT22;1386;50.862;6.494;2022-11-02T06:02:21;12.40;99.90
2757;DHT22;1386;50.862;6.494;2022-11-02T06:04:48;12.40;99.90
2757;DHT22;1386;50.862;6.494;2022-11-02T06:07:15;12.40;99.90
2757;DHT22;1386;50.862;6.494;2022-11-02T06:09:42;12.40;99.90
2757;DHT22;1386;50.862;6.494;2022-11-02T06:12:09;12.40;99.90
2757;DHT22;1386;50.862;6.494;2022-11-02T06:14:36;12.30;99.90
2757;DHT22;1386;50.862;6.494;2022-11-02T06:17:05;12.30;99.90
2757;DHT22;1386;50.862;6.494;2022-11-02T06:19:35;12.30;99.90
2757;DHT22;1386;50.862;6.494;2022-11-02T07:09:35;12.20;99.90
2757;DHT22;1386;50.862;6.494;2022-11-02T07:12:04;12.10;99.90
2757;DHT22;1386;50.862;6.494;2022-11-02T07:14:31;12.10;99.90
2757;DHT22;1386;50.862;6.494;2022-11-02T07:16:57;12.10;99.90
2757;DHT22;1386;50.862;6.494;2022-11-02T07:19:24;12.20;99.90
2757;DHT22;1386;50.862;6.494;2022-11-02T07:21:51;12.20;99.90
2757;DHT22;1386;50.862;6.494;2022-11-02T07:24:18;12.20;99.90
2757;DHT22;1386;50.862;6.494;2022-11-02T07:26:48;12.20;99.90
2757;DHT22;1386;50.862;6.494;2022-11-02T07:29:16;12.20;99.90
2757;DHT22;1386;50.862;6.494;2022-11-02T07:31:43;12.20;99.90
2757;DHT22;1386;50.862;6.494;2022-11-02T07:34:10;12.20;99.90
2757;DHT22;1386;50.862;6.494;2022-11-02T07:36:37;12.20;99.90
2757;DHT22;1386;50.862;6.494;2022-11-02T07:39:04;12.20;99.90
2757;DHT22;1386;50.862;6.494;2022-11-02T07:41:31;12.20;99.90
2757;DHT22;1386;50.862;6.494;2022-11-02T07:43:59;12.20;99.90
2757;DHT22;1386;50.862;6.494;2022-11-02T07:46:26;12.20;99.90
2757;DHT22;1386;50.862;6.494;2022-11-02T07:48:53;12.30;99.90
2757;DHT22;1386;50.862;6.494;2022-11-02T07:51:21;12.30;99.90
2757;DHT22;1386;50.862;6.494;2022-11-02T07:53:48;12.40;99.90
2757;DHT22;1386;50.862;6.494;2022-11-02T07:56:15;12.40;99.90
2757;DHT22;1386;50.862;6.494;2022-11-02T07:58:42;12.40;99.90
2757;DHT22;1386;50.862;6.494;2022-11-02T08:01:10;12.50;99.90
2757;DHT22;1386;50.862;6.494;2022-11-02T08:03:37;12.50;99.90
2757;DHT22;1386;50.862;6.494;2022-11-02T08:06:04;12.60;99.90
2757;DHT22;1386;50.862;6.494;2022-11-02T08:08:31;12.60;99.90
2757;DHT22;1386;50.862;6.494;2022-11-02T08:11:03;12.60;99.90
2757;DHT22;1386;50.862;6.494;2022-11-02T08:13:31;12.70;99.90
2757;DHT22;1386;50.862;6.494;2022-11-02T08:25:46;12.80;99.90
2757;DHT22;1386;50.862;6.494;2022-11-02T08:28:15;12.90;99.90
2757;DHT22;1386;50.862;6.494;2022-11-02T08:30:42;12.90;99.90
2757;DHT22;1386;50.862;6.494;2022-11-02T08:33:10;13.00;99.90
2757;DHT22;1386;50.862;6.494;2022-11-02T08:38:57;13.20;99.90
2757;DHT22;1386;50.862;6.494;2022-11-02T08:41:55;13.20;99.90
2757;DHT22;1386;50.862;6.494;2022-11-02T08:48:13;13.40;99.90
2757;DHT22;1386;50.862;6.494;2022-11-02T08:54:25;13.50;99.90
2757;DHT22;1386;50.862;6.494;2022-11-02T08:56:57;13.50;99.90
2757;DHT22;1386;50.862;6.494;2022-11-02T08:59:24;13.60;99.90
2757;DHT22;1386;50.862;6.494;2022-11-02T09:02:32;13.70;99.90
2757;DHT22;1386;50.862;6.494;2022-11-02T09:08:11;14.00;99.90
2757;DHT22;1386;50.862;6.494;2022-11-02T09:11:24;14.10;99.90
2757;DHT22;1386;50.862;6.494;2022-11-02T09:14:29;14.20;99.90
2757;DHT22;1386;50.862;6.494;2022-11-02T09:16:56;14.20;99.90
2757;DHT22;1386;50.862;6.494;2022-11-02T09:19:36;14.40;99.90
2757;DHT22;1386;50.862;6.494;2022-11-02T09:22:03;14.50;99.90
2757;DHT22;1386;50.862;6.494;2022-11-02T09:24:30;14.60;99.90
2757;DHT22;1386;50.862;6.494;2022-11-02T09:26:57;14.70;99.90
2757;DHT22;1386;50.862;6.494;2022-11-02T09:29:24;14.80;99.90
2757;DHT22;1386;50.862;6.494;2022-11-02T09:31:52;14.80;99.90
2757;DHT22;1386;50.862;6.494;2022-11-02T09:34:19;15.00;99.90
2757;DHT22;1386;50.862;6.494;2022-11-02T09:36:46;15.10;99.90
2757;DHT22;1386;50.862;6.494;2022-11-02T09:39:13;15.20;99.90
2757;DHT22;1386;50.862;6.494;2022-11-02T09:41:45;15.20;99.90
2757;DHT22;1386;50.862;6.494;2022-11-02T09:44:42;15.20;99.90
2757;DHT22;1386;50.862;6.494;2022-11-02T09:47:15;15.30;99.90
2757;DHT22;1386;50.862;6.494;2022-11-02T09:49:43;15.40;99.90
2757;DHT22;1386;50.862;6.494;2022-11-02T09:52:15;15.30;99.90
2757;DHT22;1386;50.862;6.494;2022-11-02T09:58:12;15.50;99.90
2757;DHT22;1386;50.862;6.494;2022-11-02T10:00:46;15.60;99.90
2757;DHT22;1386;50.862;6.494;2022-11-02T10:03:23;15.60;99.90
2757;DHT22;1386;50.862;6.494;2022-11-02T10:05:57;15.60;99.90
2757;DHT22;1386;50.862;6.494;2022-11-02T10:08:35;15.80;99.90
2757;DHT22;1386;50.862;6.494;2022-11-02T10:11:23;16.00;99.90
2757;DHT22;1386;50.862;6.494;2022-11-02T10:13:56;16.20;99.90
2757;DHT22;1386;50.862;6.494;2022-11-02T10:16:28;16.10;99.90
2757;DHT22;1386;50.862;6.494;2022-11-02T10:22:23;16.20;99.90
2757;DHT22;1386;50.862;6.494;2022-11-02T10:24:53;16.20;99.90
2757;DHT22;1386;50.862;6.494;2022-11-02T10:27:25;16.30;99.90
2757;DHT22;1386;50.862;6.494;2022-11-02T10:33:24;16.40;99.90
2757;DHT22;1386;50.862;6.494;2022-11-02T10:35:58;16.30;99.90
2757;DHT22;1386;50.862;6.494;2022-11-02T10:38:40;16.20;99.90
2757;DHT22;1386;50.862;6.494;2022-11-02T10:51:57;16.60;99.90
2757;DHT22;1386;50.862;6.494;2022-11-02T10:58:10;16.70;99.90
2757;DHT22;1386;50.862;6.494;2022-11-02T11:04:19;17.00;99.90
2757;DHT22;1386;50.862;6.494;2022-11-02T11:19:56;16.70;99.90
2757;DHT22;1386;50.862;6.494;2022-11-02T11:22:31;16.70;99.90
2757;DHT22;1386;50.862;6.494;2022-11-02T11:25:20;16.80;99.90
2757;DHT22;1386;50.862;6.494;2022-11-02T11:34:58;16.90;99.90
2757;DHT22;1386;50.862;6.494;2022-11-02T11:37:26;16.80;99.90
2757;DHT22;1386;50.862;6.494;2022-11-02T11:39:57;16.80;99.90
2757;DHT22;1386;50.862;6.494;2022-11-02T11:42:27;16.80;99.90
2757;DHT22;1386;50.862;6.494;2022-11-02T11:44:58;16.80;99.90
2757;DHT22;1386;50.862;6.494;2022-11-02T11:50:52;16.90;99.90
2757;DHT22;1386;50.862;6.494;2022-11-02T11:53:23;16.90;99.90
2757;DHT22;1386;50.862;6.494;2022-11-02T12:03:03;17.10;99.90
2757;DHT22;1386;50.862;6.494;2022-11-02T12:09:16;17.00;99.90
2757;DHT22;1386;50.862;6.494;2022-11-02T12:22:01;17.10;99.90
2757;DHT22;1386;50.862;6.494;2022-11-02T12:24:48;17.00;99.90
2757;DHT22;1386;50.862;6.494;2022-11-02T12:27:26;17.00;99.90
2757;DHT22;1386;50.862;6.494;2022-11-02T12:30:07;17.10;99.90
2757;DHT22;1386;50.862;6.494;2022-11-02T12:33:23;17.10;99.90
2757;DHT22;1386;50.862;6.494;2022-11-02T12:42:35;16.90;99.90
2757;DHT22;1386;50.862;6.494;2022-11-02T12:45:20;16.80;99.90
2757;DHT22;1386;50.862;6.494;2022-11-02T12:47:54;16.80;99.90
2757;DHT22;1386;50.862;6.494;2022-11-02T12:50:36;16.80;99.90
2757;DHT22;1386;50.862;6.494;2022-11-02T12:53:31;16.90;99.90
2757;DHT22;1386;50.862;6.494;2022-11-02T12:56:00;16.80;99.90
2757;DHT22;1386;50.862;6.494;2022-11-02T13:01:56;16.80;99.90
2757;DHT22;1386;50.862;6.494;2022-11-02T13:04:38;17.00;99.90
2757;DHT22;1386;50.862;6.494;2022-11-02T13:07:11;17.10;99.90
2757;DHT22;1386;50.862;6.494;2022-11-02T13:09:43;17.00;99.90
2757;DHT22;1386;50.862;6.494;2022-11-02T13:12:14;17.00;99.90
2757;DHT22;1386;50.862;6.494;2022-11-02T13:14:43;17.00;99.90
2757;DHT22;1386;50.862;6.494;2022-11-02T13:17:14;16.90;99.90
2757;DHT22;1386;50.862;6.494;2022-11-02T13:19:53;16.90;99.60
2757;DHT22;1386;50.862;6.494;2022-11-02T13:22:25;16.90;99.90
2757;DHT22;1386;50.862;6.494;2022-11-02T13:24:55;16.90;99.90
2757;DHT22;1386;50.862;6.494;2022-11-02T13:27:30;16.80;99.90
2757;DHT22;1386;50.862;6.494;2022-11-02T13:30:00;16.80;99.90
2757;DHT22;1386;50.862;6.494;2022-11-02T13:32:32;16.70;99.90
2757;DHT22;1386;50.862;6.494;2022-11-02T13:35:05;16.70;99.90
2757;DHT22;1386;50.862;6.494;2022-11-02T13:37:40;16.70;99.90
2757;DHT22;1386;50.862;6.494;2022-11-02T13:40:14;16.80;99.90
2757;DHT22;1386;50.862;6.494;2022-11-02T13:43:06;16.60;99.90
2757;DHT22;1386;50.862;6.494;2022-11-02T13:49:03;16.60;99.90
2757;DHT22;1386;50.862;6.494;2022-11-02T13:51:36;16.50;99.90
2757;DHT22;1386;50.862;6.494;2022-11-02T13:54:09;16.50;99.90
2757;DHT22;1386;50.862;6.494;2022-11-02T13:56:38;16.30;99.90
2757;DHT22;1386;50.862;6.494;2022-11-02T13:59:07;16.30;99.90
2757;DHT22;1386;50.862;6.494;2022-11-02T14:01:38;16.30;99.90
2757;DHT22;1386;50.862;6.494;2022-11-02T14:04:09;16.30;99.90
2757;DHT22;1386;50.862;6.494;2022-11-02T14:06:46;16.30;99.90
2757;DHT22;1386;50.862;6.494;2022-11-02T14:09:26;16.30;99.90
2757;DHT22;1386;50.862;6.494;2022-11-02T14:12:24;16.30;99.90
2757;DHT22;1386;50.862;6.494;2022-11-02T14:18:00;16.20;99.90
2757;DHT22;1386;50.862;6.494;2022-11-02T14:20:34;16.20;99.90
2757;DHT22;1386;50.862;6.494;2022-11-02T14:23:36;16.20;99.90
2757;DHT22;1386;50.862;6.494;2022-11-02T14:26:03;16.20;99.90
2757;DHT22;1386;50.862;6.494;2022-11-02T14:28:42;16.10;99.90
2757;DHT22;1386;50.862;6.494;2022-11-02T14:31:43;16.10;99.90
2757;DHT22;1386;50.862;6.494;2022-11-02T14:34:31;16.10;99.90
2757;DHT22;1386;50.862;6.494;2022-11-02T14:37:28;16.20;99.90
2757;DHT22;1386;50.862;6.494;2022-11-02T14:40:03;16.10;99.80
2757;DHT22;1386;50.862;6.494;2022-11-02T14:45:45;16.00;99.90
2757;DHT22;1386;50.862;6.494;2022-11-02T14:48:14;15.90;99.80
2757;DHT22;1386;50.862;6.494;2022-11-02T14:50:48;15.80;99.40
2757;DHT22;1386;50.862;6.494;2022-11-02T14:53:26;15.80;99.50
2757;DHT22;1386;50.862;6.494;2022-11-02T14:55:55;15.60;99.10
2757;DHT22;1386;50.862;6.494;2022-11-02T14:58:23;15.60;99.50
2757;DHT22;1386;50.862;6.494;2022-11-02T15:00:56;15.50;99.70
2757;DHT22;1386;50.862;6.494;2022-11-02T15:03:32;15.50;99.50
2757;DHT22;1386;50.862;6.494;2022-11-02T15:06:02;15.40;99.90
2757;DHT22;1386;50.862;6.494;2022-11-02T15:08:33;15.40;99.90
2757;DHT22;1386;50.862;6.494;2022-11-02T15:14:01;15.30;99.90
2757;DHT22;1386;50.862;6.494;2022-11-02T15:16:38;15.20;99.90
2757;DHT22;1386;50.862;6.494;2022-11-02T15:19:39;15.10;99.90
2757;DHT22;1386;50.862;6.494;2022-11-02T15:22:33;15.00;99.90
2757;DHT22;1386;50.862;6.494;2022-11-02T15:25:05;15.00;99.90
2757;DHT22;1386;50.862;6.494;2022-11-02T15:27:36;14.90;99.90
2757;DHT22;1386;50.862;6.494;2022-11-02T15:30:08;14.90;99.80
2757;DHT22;1386;50.862;6.494;2022-11-02T15:32:39;14.80;99.40
2757;DHT22;1386;50.862;6.494;2022-11-02T15:35:15;14.80;99.50
2757;DHT22;1386;50.862;6.494;2022-11-02T15:37:43;14.70;99.60
2757;DHT22;1386;50.862;6.494;2022-11-02T15:40:19;14.70;99.90
2757;DHT22;1386;50.862;6.494;2022-11-02T15:42:53;14.60;99.90
2757;DHT22;1386;50.862;6.494;2022-11-02T15:45:30;14.60;99.90
2757;DHT22;1386;50.862;6.494;2022-11-02T15:48:11;14.50;99.90
2757;DHT22;1386;50.862;6.494;2022-11-02T15:50:48;14.50;99.90
2757;DHT22;1386;50.862;6.494;2022-11-02T15:53:32;14.50;99.90
2757;DHT22;1386;50.862;6.494;2022-11-02T15:56:23;14.50;99.90
2757;DHT22;1386;50.862;6.494;2022-11-02T15:59:14;14.40;99.90
2757;DHT22;1386;50.862;6.494;2022-11-02T16:01:45;14.30;99.90
2757;DHT22;1386;50.862;6.494;2022-11-02T16:04:19;14.30;99.90
2757;DHT22;1386;50.862;6.494;2022-11-02T16:06:46;14.30;99.90
2757;DHT22;1386;50.862;6.494;2022-11-02T16:09:30;14.20;99.90
2757;DHT22;1386;50.862;6.494;2022-11-02T16:12:06;14.20;99.90
2757;DHT22;1386;50.862;6.494;2022-11-02T16:14:35;14.20;99.90
2757;DHT22;1386;50.862;6.494;2022-11-02T16:17:02;14.10;99.90
2757;DHT22;1386;50.862;6.494;2022-11-02T16:19:29;14.10;99.90
2757;DHT22;1386;50.862;6.494;2022-11-02T16:21:56;14.00;99.90
2757;DHT22;1386;50.862;6.494;2022-11-02T16:24:23;14.00;99.90
2757;DHT22;1386;50.862;6.494;2022-11-02T16:26:50;14.00;99.90
2757;DHT22;1386;50.862;6.494;2022-11-02T16:29:25;14.00;99.90
2757;DHT22;1386;50.862;6.494;2022-11-02T16:31:54;13.90;99.90
2757;DHT22;1386;50.862;6.494;2022-11-02T16:34:24;13.90;99.90
2757;DHT22;1386;50.862;6.494;2022-11-02T16:36:51;13.80;99.90
2757;DHT22;1386;50.862;6.494;2022-11-02T16:39:21;13.70;99.90
2757;DHT22;1386;50.862;6.494;2022-11-02T16:41:51;13.70;99.90
2757;DHT22;1386;50.862;6.494;2022-11-02T16:44:24;13.70;99.90
2757;DHT22;1386;50.862;6.494;2022-11-02T16:46:54;13.60;99.90
2757;DHT22;1386;50.862;6.494;2022-11-02T16:49:24;13.60;99.90
2757;DHT22;1386;50.862;6.494;2022-11-02T16:51:52;13.50;99.90
2757;DHT22;1386;50.862;6.494;2022-11-02T16:54:37;13.50;99.90
2757;DHT22;1386;50.862;6.494;2022-11-02T16:57:09;13.40;99.90
2757;DHT22;1386;50.862;6.494;2022-11-02T16:59:49;13.40;99.90
2757;DHT22;1386;50.862;6.494;2022-11-02T17:02:18;13.30;99.90
2757;DHT22;1386;50.862;6.494;2022-11-02T17:04:46;13.30;99.90
2757;DHT22;1386;50.862;6.494;2022-11-02T17:07:18;13.20;99.90
2757;DHT22;1386;50.862;6.494;2022-11-02T17:09:49;13.20;99.90
2757;DHT22;1386;50.862;6.494;2022-11-02T17:12:18;13.10;99.90
2757;DHT22;1386;50.862;6.494;2022-11-02T17:14:55;13.10;99.90
2757;DHT22;1386;50.862;6.494;2022-11-02T17:17:37;13.00;99.90
2757;DHT22;1386;50.862;6.494;2022-11-02T17:20:14;12.90;99.90
2757;DHT22;1386;50.862;6.494;2022-11-02T17:22:55;12.90;99.90
2757;DHT22;1386;50.862;6.494;2022-11-02T17:25:24;12.80;99.90
2757;DHT22;1386;50.862;6.494;2022-11-02T17:27:52;12.70;99.90
2757;DHT22;1386;50.862;6.494;2022-11-02T17:30:43;12.70;99.90
2757;DHT22;1386;50.862;6.494;2022-11-02T17:33:25;12.60;99.90
2757;DHT22;1386;50.862;6.494;2022-11-02T17:35:55;12.60;99.90
2757;DHT22;1386;50.862;6.494;2022-11-02T17:38:24;12.50;99.90
2757;DHT22;1386;50.862;6.494;2022-11-02T17:40:51;12.50;99.90
2757;DHT22;1386;50.862;6.494;2022-11-02T17:43:19;12.50;99.90
2757;DHT22;1386;50.862;6.494;2022-11-02T17:45:52;12.50;99.90
2757;DHT22;1386;50.862;6.494;2022-11-02T17:48:20;12.40;99.90
2757;DHT22;1386;50.862;6.494;2022-11-02T17:50:47;12.40;99.90
2757;DHT22;1386;50.862;6.494;2022-11-02T17:53:17;12.30;99.90
2757;DHT22;1386;50.862;6.494;2022-11-02T17:55:44;12.30;99.90
2757;DHT22;1386;50.862;6.494;2022-11-02T17:58:11;12.20;99.90
2757;DHT22;1386;50.862;6.494;2022-11-02T18:00:39;12.20;99.90
2757;DHT22;1386;50.862;6.494;2022-11-02T18:03:12;12.10;99.90
2757;DHT22;1386;50.862;6.494;2022-11-02T18:05:40;12.10;99.90
2757;DHT22;1386;50.862;6.494;2022-11-02T18:08:07;12.00;99.90
2757;DHT22;1386;50.862;6.494;2022-11-02T18:10:37;12.00;99.90
2757;DHT22;1386;50.862;6.494;2022-11-02T18:13:04;12.00;99.90
2757;DHT22;1386;50.862;6.494;2022-11-02T18:15:32;11.90;99.90
2757;DHT22;1386;50.862;6.494;2022-11-02T18:17:59;11.90;99.90
2757;DHT22;1386;50.862;6.494;2022-11-02T18:20:28;11.80;99.90
2757;DHT22;1386;50.862;6.494;2022-11-02T18:22:56;11.80;99.90
2757;DHT22;1386;50.862;6.494;2022-11-02T18:25:24;11.80;99.90
2757;DHT22;1386;50.862;6.494;2022-11-02T18:27:52;11.70;99.90
2757;DHT22;1386;50.862;6.494;2022-11-02T18:30:19;11.70;99.90
2757;DHT22;1386;50.862;6.494;2022-11-02T18:32:46;11.70;99.90
2757;DHT22;1386;50.862;6.494;2022-11-02T18:35:15;11.70;99.90
2757;DHT22;1386;50.862;6.494;2022-11-02T18:37:44;11.70;99.90
2757;DHT22;1386;50.862;6.494;2022-11-02T18:40:12;11.60;99.90
2757;DHT22;1386;50.862;6.494;2022-11-02T18:42:40;11.60;99.90
2757;DHT22;1386;50.862;6.494;2022-11-02T18:45:09;11.50;99.90
2757;DHT22;1386;50.862;6.494;2022-11-02T18:47:37;11.50;99.90
2757;DHT22;1386;50.862;6.494;2022-11-02T18:50:05;11.40;99.90
2757;DHT22;1386;50.862;6.494;2022-11-02T18:52:32;11.50;99.90
2757;DHT22;1386;50.862;6.494;2022-11-02T18:55:01;11.40;99.90
2757;DHT22;1386;50.862;6.494;2022-11-02T18:57:29;11.40;99.90
2757;DHT22;1386;50.862;6.494;2022-11-02T18:59:57;11.40;99.90
2757;DHT22;1386;50.862;6.494;2022-11-02T19:02:24;11.30;99.90
2757;DHT22;1386;50.862;6.494;2022-11-02T19:04:51;11.30;99.90
2757;DHT22;1386;50.862;6.494;2022-11-02T19:07:17;11.30;99.90
2757;DHT22;1386;50.862;6.494;2022-11-02T19:10:04;11.30;99.90
2757;DHT22;1386;50.862;6.494;2022-11-02T19:12:31;11.30;99.90
2757;DHT22;1386;50.862;6.494;2022-11-02T19:14:58;11.20;99.90
2757;DHT22;1386;50.862;6.494;2022-11-02T19:17:25;11.20;99.90
2757;DHT22;1386;50.862;6.494;2022-11-02T19:19:53;11.10;99.90
2757;DHT22;1386;50.862;6.494;2022-11-02T19:22:21;11.10;99.90
2757;DHT22;1386;50.862;6.494;2022-11-02T19:24:48;11.10;99.90
2757;DHT22;1386;50.862;6.494;2022-11-02T19:27:18;11.00;99.90
2757;DHT22;1386;50.862;6.494;2022-11-02T19:29:45;11.00;99.90
2757;DHT22;1386;50.862;6.494;2022-11-02T19:32:12;11.00;99.90